Hall Park, Oklahoma
Current Conditions -  °F | °C
As of 3:15 PM on Monday 22 Dec 2014 (Local Time) from KOUN Reporting Station
Clear Clear  
Wind Chill: 54°   Ceiling: Unl
Heat Index: 54°   Visibility: 10mi
Dew Point: 41°   Wind: 12mph
Humidity: 62%   Direction: 320°NW
Pressure: 29.6"   Gusts: 18mph
Location:  35.2211°N, 97.4448°W
Report Text: KOUN 222115Z AUTO 32010G16KT 10SM CLR 12/05 A2960 RMK AO2 LTG DSNT NW
Loading
Personal Weather Stations






























Interactive Weather Map New forecast layout! Learn more

10-Day Weather Forecast

Advertisements
Track Severe Weather on mobile